Time;durP1;ratioP1;P1;durP2;ratioP2;P2;SDS_P1;SDS_P2;PMS_P1;PMS_P2;Temp;Humidity;BMP_temperature;BMP_pressure;BME280_temperature;BME280_humidity;BME280_pressure;Samples;Min_cycle;Max_cycle;Signal;HPM_P1;HPM_P2
2020/12/02 00:01:13;;;;;;;45.63;25.85;;;;;;;0.16;54.90;94212.16;5019695;28;20592;-85
2020/12/02 00:03:41;;;;;;;50.05;26.33;;;;;;;0.17;54.84;94213.75;5019494;28;20061;-85
2020/12/02 00:06:08;;;;;;;44.28;26.80;;;;;;;0.20;54.98;94215.13;5022543;28;20053;-86
2020/12/02 00:08:36;;;;;;;43.97;26.13;;;;;;;0.17;54.90;94218.97;5018540;28;20052;-85
2020/12/02 00:11:09;;;;;;;48.97;26.73;;;;;;;0.16;55.37;94227.75;5020545;28;20045;-86
2020/12/02 00:13:38;;;;;;;49.80;28.05;;;;;;;0.14;55.15;94221.19;5019233;28;20128;-85
2020/12/02 00:16:05;;;;;;;51.70;30.13;;;;;;;0.12;55.11;94228.41;5017564;28;20391;-85
2020/12/02 00:18:34;;;;;;;48.53;29.92;;;;;;;0.03;55.06;94201.09;5020207;28;20100;-86
2020/12/02 00:21:00;;;;;;;53.63;28.83;;;;;;;0.08;54.96;94211.66;5021352;28;21260;-85
2020/12/02 00:23:25;;;;;;;53.20;28.77;;;;;;;0.16;54.89;94206.97;5020703;28;20049;-85
2020/12/02 00:25:51;;;;;;;51.95;28.52;;;;;;;0.03;54.91;94204.50;5018538;28;20037;-86
2020/12/02 00:28:16;;;;;;;43.65;26.45;;;;;;;0.07;54.61;94197.88;5022637;28;20042;-86
2020/12/02 00:30:42;;;;;;;49.78;28.42;;;;;;;0.15;54.94;94215.78;5023085;28;20101;-85
2020/12/02 00:33:14;;;;;;;47.72;26.88;;;;;;;0.09;55.13;94208.84;5024109;28;20482;-85
2020/12/02 00:35:40;;;;;;;50.38;29.80;;;;;;;0.05;54.94;94199.09;5021413;28;20065;-85
2020/12/02 00:38:08;;;;;;;58.95;32.67;;;;;;;0.01;54.83;94198.72;5023263;28;23070;-85
2020/12/02 00:40:34;;;;;;;58.17;31.75;;;;;;;-0.07;55.22;94188.59;5022908;28;20102;-85
2020/12/02 00:43:00;;;;;;;61.33;33.38;;;;;;;0.09;55.22;94216.66;5022089;28;20057;-85
2020/12/02 00:45:26;;;;;;;77.50;42.58;;;;;;;0.02;55.01;94195.13;5021686;28;20373;-86
2020/12/02 00:47:52;;;;;;;79.15;43.97;;;;;;;-0.07;54.83;94183.41;5025107;28;20028;-86
2020/12/02 00:50:20;;;;;;;73.75;41.03;;;;;;;-0.04;55.29;94201.94;5023422;28;20050;-85
2020/12/02 00:52:59;;;;;;;83.13;46.33;;;;;;;0.10;55.17;94207.81;5020639;28;20728;-85
2020/12/02 00:55:25;;;;;;;97.57;51.10;;;;;;;-0.04;55.54;94190.75;5017903;28;20030;-85
2020/12/02 00:57:52;;;;;;;103.53;55.28;;;;;;;0.05;55.48;94215.47;5004389;28;20088;-85
2020/12/02 01:00:18;;;;;;;100.05;55.22;;;;;;;0.03;55.31;94212.28;5033482;28;20034;-86
2020/12/02 01:03:08;;;;;;;102.78;56.03;;;;;;;0.08;54.78;94217.66;5024912;28;20030;-85
2020/12/02 01:05:34;;;;;;;98.03;54.55;;;;;;;-0.12;54.59;94188.44;5022720;28;20054;-85
2020/12/02 01:08:17;;;;;;;97.38;55.00;;;;;;;-0.09;54.64;94193.19;5020680;28;20038;-86
2020/12/02 01:10:44;;;;;;;80.72;43.47;;;;;;;0.03;54.76;94214.91;5015191;28;20053;-86
2020/12/02 01:13:10;;;;;;;77.95;45.38;;;;;;;-0.05;54.48;94204.78;5021711;28;20125;-86
2020/12/02 01:15:36;;;;;;;79.47;44.58;;;;;;;-0.04;54.94;94203.75;5023523;28;20057;-86
2020/12/02 01:18:22;;;;;;;86.05;48.17;;;;;;;-0.01;55.30;94206.75;5024800;28;20033;-85
2020/12/02 01:20:54;;;;;;;85.63;48.78;;;;;;;-0.08;55.56;94198.19;5037860;28;20033;-85
2020/12/02 01:23:21;;;;;;;99.05;52.08;;;;;;;-0.02;55.47;94204.34;5023011;28;20076;-85
2020/12/02 01:25:46;;;;;;;91.72;50.33;;;;;;;-0.16;55.27;94193.28;5016157;28;20081;-85
2020/12/02 01:28:20;;;;;;;89.78;48.67;;;;;;;-0.17;55.71;94188.28;5034864;28;20643;-85
2020/12/02 01:30:46;;;;;;;100.43;51.53;;;;;;;-0.12;54.98;94212.63;5022713;28;20682;-85
2020/12/02 01:33:15;;;;;;;91.25;50.65;;;;;;;-0.23;55.18;94202.91;5024663;28;20021;-86
2020/12/02 01:35:44;;;;;;;76.50;42.85;;;;;;;-0.22;55.64;94203.72;5055092;28;20092;-86
2020/12/02 01:38:12;;;;;;;71.60;37.20;;;;;;;-0.26;55.21;94197.34;5022140;28;20091;-85
2020/12/02 01:40:38;;;;;;;66.43;35.53;;;;;;;-0.17;55.69;94201.28;5022307;28;20128;-85
2020/12/02 01:43:07;;;;;;;67.07;36.67;;;;;;;-0.29;55.37;94195.19;5019079;28;20713;-85
2020/12/02 01:45:44;;;;;;;77.35;42.35;;;;;;;-0.14;55.54;94225.03;5023346;28;20135;-85
2020/12/02 01:48:31;;;;;;;84.10;46.28;;;;;;;-0.17;55.98;94219.47;5021410;28;20026;-85
2020/12/02 01:51:02;;;;;;;75.32;41.47;;;;;;;-0.23;56.94;94204.72;5036756;28;20128;-85
2020/12/02 01:53:43;;;;;;;67.35;37.80;;;;;;;-0.20;56.54;94217.28;5021162;28;20081;-85
2020/12/02 01:56:33;;;;;;;89.68;43.97;;;;;;;-0.21;56.59;94210.50;5021792;28;20045;-85
2020/12/02 01:59:05;;;;;;;82.50;43.83;;;;;;;-0.31;56.14;94202.38;5021427;28;20117;-85
2020/12/02 02:01:43;;;;;;;67.78;37.63;;;;;;;-0.36;56.55;94199.63;5018545;28;20053;-85
2020/12/02 02:04:13;;;;;;;66.18;35.10;;;;;;;-0.33;56.71;94212.19;5021889;28;20044;-86
2020/12/02 02:06:55;;;;;;;56.30;32.28;;;;;;;-0.27;56.47;94211.34;5024255;28;20402;-85
2020/12/02 02:09:21;;;;;;;51.30;29.63;;;;;;;-0.33;56.59;94207.00;5035587;28;20025;-85
2020/12/02 02:12:00;;;;;;;38.53;23.17;;;;;;;-0.33;56.64;94210.38;5022729;28;20028;-85
2020/12/02 02:15:20;;;;;;;38.88;21.30;;;;;;;-0.41;56.28;94207.25;5022828;28;20033;-85
2020/12/02 02:17:46;;;;;;;34.22;18.80;;;;;;;-0.32;56.23;94219.78;4996697;28;20049;-86
2020/12/02 02:20:13;;;;;;;30.58;18.80;;;;;;;-0.41;56.37;94225.44;5022065;28;20049;-85
2020/12/02 02:22:39;;;;;;;29.17;18.73;;;;;;;-0.60;56.43;94190.81;5019399;28;20041;-85
2020/12/02 02:25:11;;;;;;;33.83;20.13;;;;;;;-0.47;56.92;94214.09;5020696;28;20975;-85
2020/12/02 02:27:39;;;;;;;39.45;20.42;;;;;;;-0.43;56.55;94213.44;5020924;28;20042;-85
2020/12/02 02:30:05;;;;;;;27.70;17.67;;;;;;;-0.48;56.50;94209.91;5036340;28;20021;-86
2020/12/02 02:32:31;;;;;;;32.97;17.83;;;;;;;-0.39;56.36;94223.44;5015165;28;20041;-85
2020/12/02 02:34:58;;;;;;;27.83;16.75;;;;;;;-0.50;56.66;94204.13;5021610;28;20032;-85
2020/12/02 02:37:30;;;;;;;29.98;16.85;;;;;;;-0.44;56.68;94211.84;5020670;28;20537;-86
2020/12/02 02:39:56;;;;;;;34.50;18.77;;;;;;;-0.47;56.57;94209.69;5019303;28;20414;-85
2020/12/02 02:42:33;;;;;;;33.22;19.02;;;;;;;-0.32;56.79;94224.97;5009557;28;20029;-85
2020/12/02 02:45:01;;;;;;;34.45;19.05;;;;;;;-0.46;56.79;94203.50;5039110;28;20022;-85
2020/12/02 02:47:27;;;;;;;36.10;20.02;;;;;;;-0.36;56.81;94220.41;5019699;28;20428;-86
2020/12/02 02:49:52;;;;;;;33.30;18.90;;;;;;;-0.43;56.52;94205.66;5020331;28;20053;-86
2020/12/02 02:52:18;;;;;;;35.03;21.70;;;;;;;-0.37;56.31;94205.81;5024196;28;20052;-86
2020/12/02 02:54:44;;;;;;;43.60;22.83;;;;;;;-0.30;56.52;94228.16;5021735;28;20034;-86
2020/12/02 02:57:09;;;;;;;43.70;24.95;;;;;;;-0.27;56.16;94232.91;5021563;28;20036;-86
2020/12/02 02:59:35;;;;;;;42.78;22.75;;;;;;;-0.26;56.29;94218.94;5020612;28;20037;-86
2020/12/02 03:02:01;;;;;;;43.33;24.13;;;;;;;-0.37;55.68;94201.44;5021453;28;20604;-86
2020/12/02 03:04:27;;;;;;;42.65;23.95;;;;;;;-0.34;55.94;94208.03;5015580;28;20136;-86
2020/12/02 03:06:52;;;;;;;47.53;26.70;;;;;;;-0.24;55.99;94218.69;5020411;28;20088;-86
2020/12/02 03:09:18;;;;;;;47.95;27.13;;;;;;;-0.27;55.78;94211.34;5021412;28;20584;-86
2020/12/02 03:11:44;;;;;;;44.47;24.17;;;;;;;-0.19;56.36;94226.66;5020761;28;20112;-86
2020/12/02 03:14:11;;;;;;;36.95;21.83;;;;;;;-0.24;56.48;94210.91;5019021;28;21057;-86
2020/12/02 03:16:48;;;;;;;39.72;21.63;;;;;;;-0.19;56.49;94234.44;5020608;28;20445;-86
2020/12/02 03:19:23;;;;;;;34.70;21.08;;;;;;;-0.27;56.04;94211.34;4949039;28;20080;-87
2020/12/02 03:21:51;;;;;;;44.72;22.90;;;;;;;-0.24;56.03;94223.91;5004461;28;20040;-86
2020/12/02 03:24:17;;;;;;;41.33;23.92;;;;;;;-0.37;56.36;94208.41;5031282;28;20021;-85
2020/12/02 03:26:46;;;;;;;41.15;24.30;;;;;;;-0.29;56.11;94214.16;5023008;28;20444;-86
2020/12/02 03:29:11;;;;;;;39.25;22.05;;;;;;;-0.30;56.18;94211.78;5020795;28;20049;-86
2020/12/02 03:31:37;;;;;;;38.80;22.55;;;;;;;-0.34;56.20;94202.81;5018383;28;20088;-86
2020/12/02 03:34:05;;;;;;;38.70;23.25;;;;;;;-0.36;56.16;94210.03;5021703;28;20049;-86
2020/12/02 03:36:30;;;;;;;36.67;22.33;;;;;;;-0.35;56.33;94206.44;5019782;28;20036;-86
2020/12/02 03:38:57;;;;;;;37.28;22.88;;;;;;;-0.39;56.11;94197.47;5021346;28;20025;-86
2020/12/02 03:41:22;;;;;;;38.30;22.60;;;;;;;-0.28;55.93;94217.53;5018632;28;20107;-86
2020/12/02 03:43:48;;;;;;;39.97;24.33;;;;;;;-0.38;56.07;94209.41;5018256;28;20045;-86
2020/12/02 03:46:14;;;;;;;34.95;22.33;;;;;;;-0.37;55.79;94198.03;5018886;28;20053;-86
2020/12/02 03:48:39;;;;;;;40.42;22.63;;;;;;;-0.32;55.43;94204.19;5020581;28;20551;-86
2020/12/02 03:51:05;;;;;;;33.97;21.23;;;;;;;-0.24;55.40;94218.69;5022526;28;20025;-86
2020/12/02 03:53:31;;;;;;;35.67;20.42;;;;;;;-0.23;55.34;94225.50;5018211;28;20052;-86
2020/12/02 03:55:56;;;;;;;32.20;19.33;;;;;;;-0.26;55.15;94218.13;5018274;28;20053;-86
2020/12/02 03:58:22;;;;;;;34.05;21.35;;;;;;;-0.29;55.18;94214.16;5020832;28;20040;-86
2020/12/02 04:00:47;;;;;;;27.90;19.35;;;;;;;-0.32;55.00;94206.00;5020462;28;20045;-85
2020/12/02 04:03:13;;;;;;;37.22;20.45;;;;;;;-0.41;55.11;94209.84;5020574;28;20397;-86
2020/12/02 04:05:39;;;;;;;38.38;22.60;;;;;;;-0.36;55.30;94223.00;5020884;28;20056;-86
2020/12/02 04:08:05;;;;;;;33.80;20.10;;;;;;;-0.33;55.02;94223.38;5020827;28;20128;-86
2020/12/02 04:10:31;;;;;;;38.70;23.70;;;;;;;-0.44;55.41;94211.84;5016420;28;20042;-86
2020/12/02 04:12:56;;;;;;;40.13;21.52;;;;;;;-0.54;55.39;94190.00;5020120;28;20049;-86
2020/12/02 04:15:22;;;;;;;43.30;24.75;;;;;;;-0.53;55.29;94199.34;5019324;28;20100;-85
2020/12/02 04:17:49;;;;;;;37.55;22.40;;;;;;;-0.34;55.04;94221.78;5020278;28;20080;-86
2020/12/02 04:20:18;;;;;;;36.03;21.50;;;;;;;-0.36;54.59;94233.38;5019871;28;20084;-87
2020/12/02 04:22:45;;;;;;;38.17;21.83;;;;;;;-0.44;54.98;94226.66;5018041;28;20037;-86
2020/12/02 04:25:11;;;;;;;39.70;24.05;;;;;;;-0.48;55.18;94231.47;5019436;28;20053;-86
2020/12/02 04:27:37;;;;;;;47.60;25.73;;;;;;;-0.64;55.71;94208.63;5018558;28;20079;-86
2020/12/02 04:30:04;;;;;;;49.38;25.80;;;;;;;-0.51;56.11;94231.88;5021358;28;20025;-85
2020/12/02 04:32:30;;;;;;;94.22;43.50;;;;;;;-0.63;56.38;94210.19;5014274;28;20045;-86
2020/12/02 04:35:01;;;;;;;83.43;40.50;;;;;;;-0.66;56.70;94223.59;5019182;28;20055;-86
2020/12/02 04:37:26;;;;;;;55.80;29.52;;;;;;;-0.70;57.10;94214.66;5020091;28;20042;-86
2020/12/02 04:39:52;;;;;;;68.70;32.67;;;;;;;-0.73;56.95;94212.44;5018901;28;20048;-86
2020/12/02 04:42:18;;;;;;;59.53;28.08;;;;;;;-0.72;56.57;94208.84;5017512;28;20869;-86
2020/12/02 04:44:48;;;;;;;46.90;24.85;;;;;;;-0.74;56.17;94200.50;5014102;28;20378;-86
2020/12/02 04:47:14;;;;;;;50.15;29.15;;;;;;;-0.60;56.10;94221.97;5016576;28;20120;-86
2020/12/02 04:49:40;;;;;;;43.80;25.63;;;;;;;-0.61;56.52;94236.75;5015081;28;20082;-86
2020/12/02 04:52:14;;;;;;;38.58;22.58;;;;;;;-0.62;56.85;94240.34;5017802;28;20056;-86
2020/12/02 04:54:41;;;;;;;44.20;25.20;;;;;;;-0.64;56.81;94244.97;5014330;28;20488;-86
2020/12/02 04:57:09;;;;;;;52.90;26.60;;;;;;;-0.67;56.38;94232.38;5021055;28;20036;-86
2020/12/02 04:59:40;;;;;;;41.58;23.20;;;;;;;-0.78;56.26;94224.47;5020751;28;20045;-85
2020/12/02 05:02:06;;;;;;;44.58;26.13;;;;;;;-0.73;56.12;94228.03;5006807;28;20037;-86
2020/12/02 05:04:32;;;;;;;43.05;24.95;;;;;;;-0.67;55.92;94237.56;5012805;28;20053;-86
2020/12/02 05:07:04;;;;;;;49.47;28.17;;;;;;;-0.68;55.87;94233.38;5017947;28;20095;-86
2020/12/02 05:09:31;;;;;;;65.22;38.55;;;;;;;-0.78;55.93;94225.25;5017817;28;20029;-86
2020/12/02 08:10:32;;;;;;;109.75;62.72;;;;;;;1.83;56.20;94326.16;4919716;28;20309;-90
2020/12/02 08:13:00;;;;;;;105.45;60.42;;;;;;;1.76;56.57;94296.78;4958902;28;20046;-90
2020/12/02 08:15:26;;;;;;;111.45;63.80;;;;;;;1.89;56.21;94314.84;4988056;28;20421;-90
2020/12/02 08:18:11;;;;;;;108.75;64.80;;;;;;;1.87;55.80;94298.63;5015657;28;20470;-92
2020/12/02 08:20:37;;;;;;;117.35;67.43;;;;;;;1.87;55.95;94293.41;5020078;28;20045;-87
2020/12/02 08:24:13;;;;;;;114.80;66.88;;;;;;;2.28;55.79;94336.13;4931797;28;20133;-89
2020/12/02 08:29:10;;;;;;;117.72;69.55;;;;;;;2.33;55.56;94331.03;4976200;28;20058;-89
2020/12/02 08:32:30;;;;;;;116.20;72.50;;;;;;;2.45;55.35;94318.78;4908668;28;20067;-87
2020/12/02 08:41:23;;;;;;;126.57;75.93;;;;;;;2.64;54.90;94273.31;5114559;23;20127;-96
2020/12/02 08:43:49;;;;;;;129.88;79.32;;;;;;;2.57;54.88;94252.56;4987911;28;20072;-95
2020/12/02 08:46:22;;;;;;;132.48;81.07;;;;;;;2.59;55.36;94257.56;4946484;28;20043;-96
2020/12/02 08:49:02;;;;;;;138.57;84.47;;;;;;;2.86;55.09;94289.19;4988485;28;20046;-95
2020/12/02 08:51:28;;;;;;;138.48;82.13;;;;;;;2.68;54.90;94247.56;4974721;28;20033;-94
2020/12/02 08:53:55;;;;;;;142.70;86.18;;;;;;;2.75;54.36;94246.41;4994460;28;20029;-95
2020/12/02 08:56:24;;;;;;;148.00;86.22;;;;;;;2.87;54.24;94252.44;4989713;28;20035;-96
2020/12/02 08:58:50;;;;;;;145.18;86.38;;;;;;;3.00;54.11;94254.78;4985461;28;20105;-96
2020/12/02 09:01:15;;;;;;;135.60;86.82;;;;;;;3.10;53.88;94261.22;4994748;28;20065;-95
2020/12/02 09:03:47;;;;;;;136.23;84.13;;;;;;;3.29;53.76;94283.53;4993542;28;20053;-96
2020/12/02 09:06:16;;;;;;;145.38;86.72;;;;;;;3.14;53.64;94262.34;4997152;28;20030;-96
2020/12/02 09:08:42;;;;;;;146.98;88.30;;;;;;;3.45;53.65;94286.22;4998149;28;20030;-96
2020/12/02 09:11:08;;;;;;;149.43;90.90;;;;;;;3.51;53.84;94288.94;5000226;28;20104;-95
2020/12/02 09:13:35;;;;;;;147.73;91.63;;;;;;;3.25;54.23;94249.28;4993421;28;20046;-96
2020/12/02 09:16:03;;;;;;;142.23;91.47;;;;;;;3.28;53.66;94248.00;4978728;28;20045;-96
2020/12/02 09:18:31;;;;;;;161.27;96.25;;;;;;;3.25;53.84;94228.38;5002570;28;20022;-95
2020/12/02 09:20:57;;;;;;;149.40;96.32;;;;;;;3.69;53.38;94280.91;4992180;28;20018;-95
2020/12/02 09:23:22;;;;;;;152.07;95.18;;;;;;;3.56;53.44;94228.94;4988071;28;20041;-95
2020/12/02 09:25:48;;;;;;;144.38;88.97;;;;;;;3.62;53.65;94225.38;4993148;28;20046;-95
2020/12/02 09:28:14;;;;;;;155.48;88.47;;;;;;;3.93;53.76;94269.31;4993301;28;20065;-95
2020/12/02 09:30:39;;;;;;;158.73;93.78;;;;;;;3.83;53.55;94232.53;4992018;28;20043;-96
2020/12/02 09:33:05;;;;;;;148.30;91.47;;;;;;;4.20;52.91;94266.91;4996936;28;20038;-95
2020/12/02 09:35:32;;;;;;;177.18;100.85;;;;;;;4.10;52.87;94232.72;4992127;28;20627;-96
2020/12/02 09:37:57;;;;;;;152.95;91.45;;;;;;;4.17;52.94;94223.69;4993718;28;20536;-96
2020/12/02 09:40:23;;;;;;;136.73;84.70;;;;;;;4.43;52.40;94261.50;4982427;28;20050;-96
2020/12/02 09:43:06;;;;;;;137.05;80.47;;;;;;;4.62;52.58;94280.34;4951014;28;20074;-95
2020/12/02 09:45:44;;;;;;;116.35;75.35;;;;;;;4.62;53.11;94275.13;4972305;28;20030;-96
2020/12/02 09:48:13;;;;;;;114.38;72.03;;;;;;;4.54;52.27;94226.59;5012231;28;20072;-96
2020/12/02 09:50:39;;;;;;;117.50;70.18;;;;;;;4.44;51.70;94200.28;4991123;28;20089;-96
2020/12/02 09:53:23;;;;;;;102.82;63.35;;;;;;;4.71;52.03;94219.50;4981480;28;20038;-95
2020/12/02 11:07:37;;;;;;;60.10;39.53;;;;;;;7.62;45.86;94167.16;5015315;27;20403;-88
2020/12/02 11:10:15;;;;;;;62.78;39.33;;;;;;;7.58;45.54;94152.91;5014171;28;20391;-87
2020/12/02 11:12:53;;;;;;;60.92;39.28;;;;;;;7.85;45.74;94171.91;4991008;28;20068;-88
2020/12/02 11:15:29;;;;;;;63.80;40.17;;;;;;;7.92;44.94;94169.78;4992552;28;20054;-87
2020/12/02 11:18:22;;;;;;;63.47;37.83;;;;;;;8.03;45.57;94168.75;5011719;28;20025;-87
2020/12/02 11:20:54;;;;;;;60.85;40.10;;;;;;;8.03;46.02;94173.22;5013179;28;20074;-87
2020/12/02 11:23:38;;;;;;;58.05;38.38;;;;;;;8.22;45.61;94171.63;5033034;28;20429;-86
2020/12/02 11:26:13;;;;;;;61.60;36.85;;;;;;;8.23;44.84;94168.75;5029121;28;20515;-83
2020/12/02 11:28:43;;;;;;;53.92;36.03;;;;;;;8.12;45.01;94153.22;4986102;28;20472;-83
2020/12/02 11:31:33;;;;;;;57.25;37.67;;;;;;;8.15;45.43;94155.34;4993336;28;20689;-82
2020/12/02 11:34:04;;;;;;;63.78;39.55;;;;;;;8.26;45.23;94151.63;5015609;28;20042;-83
2020/12/02 11:36:53;;;;;;;59.03;39.80;;;;;;;8.37;44.96;94152.44;5000961;28;20056;-83
2020/12/02 11:39:42;;;;;;;55.80;38.40;;;;;;;8.28;45.13;94150.31;4994616;28;20569;-83
2020/12/02 11:42:13;;;;;;;59.15;37.22;;;;;;;8.19;45.19;94151.09;5009236;28;20178;-82
2020/12/02 11:44:58;;;;;;;60.25;37.03;;;;;;;8.18;45.22;94155.59;5027961;28;20034;-82
2020/12/02 11:47:37;;;;;;;57.08;38.80;;;;;;;8.15;45.20;94142.16;5008128;28;20038;-82
2020/12/02 11:50:15;;;;;;;55.95;35.80;;;;;;;7.95;45.69;94135.06;5000526;28;20100;-82
2020/12/02 11:52:50;;;;;;;58.17;36.28;;;;;;;8.03;45.75;94145.06;5017362;28;20474;-82
2020/12/02 11:55:17;;;;;;;;;;;;;;;8.10;45.90;94148.22;4993831;28;20026;-82
2020/12/02 11:57:48;;;;;;;57.08;37.75;;;;;;;7.97;45.94;94143.47;5012520;28;20389;-82
2020/12/02 12:00:14;;;;;;;64.07;40.40;;;;;;;7.91;46.17;94147.19;4995317;28;20061;-82
2020/12/02 12:03:01;;;;;;;67.78;44.17;;;;;;;7.99;45.91;94141.38;4992081;28;20118;-82
2020/12/02 12:05:35;;;;;;;74.20;43.92;;;;;;;8.07;45.77;94148.72;4994169;28;20082;-81
2020/12/02 12:08:18;;;;;;;66.40;41.75;;;;;;;7.99;45.89;94140.59;4996740;28;20094;-82
2020/12/02 12:11:00;;;;;;;57.95;36.10;;;;;;;7.86;46.32;94131.38;5016806;28;20057;-82
2020/12/02 12:13:56;;;;;;;70.75;41.58;;;;;;;7.84;46.38;94134.28;4990282;28;20505;-84
2020/12/02 12:16:31;;;;;;;;;;;;;;;7.74;47.02;94130.84;4992485;28;20473;-82
2020/12/02 12:19:36;;;;;;;52.75;36.10;;;;;;;7.76;47.14;94136.66;4981837;28;19929;-81
2020/12/02 12:22:10;;;;;;;58.78;37.22;;;;;;;7.78;47.00;94131.88;4999404;28;20058;-80
2020/12/02 12:24:35;;;;;;;51.85;33.58;;;;;;;7.84;46.68;94122.97;4998650;28;20114;-81
2020/12/02 12:27:01;;;;;;;51.75;34.28;;;;;;;7.96;46.37;94120.06;4991498;28;20058;-81
2020/12/02 12:29:27;;;;;;;54.10;33.72;;;;;;;8.08;46.48;94134.53;4985265;28;20056;-81
2020/12/02 12:31:58;;;;;;;49.95;33.03;;;;;;;8.05;46.76;94127.16;5001890;28;20026;-81
2020/12/02 12:34:49;;;;;;;51.78;34.45;;;;;;;7.97;46.24;94117.16;4980639;28;21039;-81
2020/12/02 12:37:38;;;;;;;56.92;35.15;;;;;;;7.94;46.43;94122.16;4979705;28;20096;-81
2020/12/02 12:40:13;;;;;;;54.15;34.55;;;;;;;8.08;45.94;94134.53;4981991;28;20050;-81
2020/12/02 12:42:38;;;;;;;53.75;35.88;;;;;;;8.07;46.43;94125.03;4968434;28;20108;-81
2020/12/02 12:45:13;;;;;;;58.75;37.05;;;;;;;8.01;46.48;94115.59;4992362;28;20058;-82
2020/12/02 12:47:39;;;;;;;57.10;35.55;;;;;;;8.07;46.79;94109.25;4998303;28;20030;-81
2020/12/02 12:50:08;;;;;;;54.67;34.78;;;;;;;8.16;46.46;94125.31;5000061;28;20084;-84
2020/12/02 12:52:36;;;;;;;56.90;36.20;;;;;;;8.05;46.90;94132.44;4980481;28;20033;-84
2020/12/02 12:55:01;;;;;;;51.92;33.90;;;;;;;7.99;47.04;94136.13;4995981;28;20516;-83
2020/12/02 12:57:29;;;;;;;55.15;34.80;;;;;;;7.96;48.27;94141.91;4993422;28;20050;-80
2020/12/02 13:00:07;;;;;;;75.78;48.85;;;;;;;7.98;47.88;94141.63;4987135;28;20422;-82
2020/12/02 13:02:35;;;;;;;83.07;53.58;;;;;;;7.91;48.44;94144.53;4985912;28;20044;-83
2020/12/02 13:05:01;;;;;;;95.63;65.03;;;;;;;7.92;48.67;94135.56;4934630;28;20054;-82
2020/12/02 13:07:35;;;;;;;128.63;89.53;;;;;;;7.82;48.68;94125.06;4989708;28;20068;-83
2020/12/02 13:10:25;;;;;;;231.95;141.00;;;;;;;7.67;49.48;94135.59;4991348;28;20035;-82
2020/12/02 13:13:00;;;;;;;177.00;102.50;;;;;;;7.52;49.90;94130.31;4992957;28;20611;-82
2020/12/02 13:15:44;;;;;;;263.83;140.00;;;;;;;7.35;50.64;94131.31;4992614;28;20049;-82
2020/12/02 13:18:49;;;;;;;412.15;200.55;;;;;;;7.22;51.00;94136.28;5014301;28;20026;-82
2020/12/02 13:21:38;;;;;;;342.98;169.75;;;;;;;7.07;51.21;94129.16;5001974;28;20033;-82
2020/12/02 13:24:19;;;;;;;195.40;101.32;;;;;;;6.95;51.59;94125.94;4997571;28;20502;-82
2020/12/02 13:26:49;;;;;;;231.52;125.07;;;;;;;6.92;51.69;94135.16;4999248;28;20093;-81
2020/12/02 13:29:39;;;;;;;209.30;111.90;;;;;;;6.82;52.04;94137.72;4994751;28;20600;-81
2020/12/02 13:32:11;;;;;;;132.75;81.10;;;;;;;6.75;52.25;94136.38;4995167;28;20060;-82
2020/12/02 13:34:36;;;;;;;121.93;73.28;;;;;;;6.71;52.34;94130.03;4996769;28;20450;-82
2020/12/02 13:37:03;;;;;;;97.85;59.20;;;;;;;6.72;52.33;94129.00;4997423;28;20050;-82
2020/12/02 13:39:28;;;;;;;88.43;56.90;;;;;;;6.64;52.51;94121.63;4997045;28;20048;-82
2020/12/02 13:41:58;;;;;;;93.85;60.55;;;;;;;6.50;52.74;94119.44;4995615;28;20506;-82
2020/12/02 13:44:41;;;;;;;96.43;59.28;;;;;;;6.41;52.89;94120.97;4992994;28;20034;-82
2020/12/02 13:47:10;;;;;;;105.22;65.25;;;;;;;6.44;52.92;94131.00;4996914;28;20080;-82
2020/12/02 13:49:37;;;;;;;121.13;72.43;;;;;;;6.40;52.94;94124.63;4989130;28;20039;-81
2020/12/02 13:52:29;;;;;;;138.23;74.88;;;;;;;6.34;53.05;94130.13;4987227;28;20046;-81
2020/12/02 13:55:00;;;;;;;115.40;65.95;;;;;;;6.26;53.28;94128.75;4980257;28;20049;-80
2020/12/02 13:57:47;;;;;;;107.30;63.72;;;;;;;6.22;53.33;94122.44;4995491;28;20031;-81
2020/12/02 14:00:23;;;;;;;122.93;66.88;;;;;;;6.15;53.29;94121.09;4999246;28;20359;-80
2020/12/02 14:03:06;;;;;;;121.43;66.45;;;;;;;6.09;53.56;94118.44;4996058;28;20046;-81
2020/12/02 14:05:50;;;;;;;132.77;69.07;;;;;;;6.04;53.59;94122.84;4995132;28;20104;-80
2020/12/02 14:08:16;;;;;;;122.07;65.47;;;;;;;5.91;53.79;94110.94;5001309;28;20044;-80
2020/12/02 14:10:42;;;;;;;89.80;53.15;;;;;;;5.92;53.81;94122.22;4996823;28;20042;-80
2020/12/02 14:13:09;;;;;;;83.97;50.45;;;;;;;5.89;54.16;94128.78;5010221;28;20037;-80
2020/12/02 14:15:37;;;;;;;95.13;55.97;;;;;;;5.88;54.18;94129.03;4991777;28;20033;-80
2020/12/02 14:18:04;;;;;;;144.77;83.18;;;;;;;5.81;54.10;94131.06;4996254;28;20602;-81
2020/12/02 14:20:29;;;;;;;134.35;78.55;;;;;;;5.75;53.90;94116.31;4994905;28;20096;-81
2020/12/02 14:22:57;;;;;;;119.32;70.60;;;;;;;5.74;54.09;94127.84;4993336;28;20558;-81
2020/12/02 14:25:23;;;;;;;103.05;60.75;;;;;;;5.66;54.33;94122.03;4956853;28;20049;-80
2020/12/02 14:27:51;;;;;;;80.95;49.05;;;;;;;5.60;54.20;94125.63;4997653;28;22259;-81
2020/12/02 14:30:26;;;;;;;74.95;44.63;;;;;;;5.54;54.51;94126.63;4998608;28;20538;-81
2020/12/02 14:32:53;;;;;;;75.25;45.83;;;;;;;5.48;54.68;94122.38;4994680;28;20518;-81
2020/12/02 14:35:27;;;;;;;76.05;45.45;;;;;;;5.51;54.53;94121.09;4996345;28;20501;-81
2020/12/02 14:38:00;;;;;;;69.78;41.60;;;;;;;5.47;54.61;94120.78;4990128;28;20101;-82
2020/12/02 14:40:27;;;;;;;89.40;53.13;;;;;;;5.37;54.48;94115.47;4992477;28;20042;-81
2020/12/02 14:42:55;;;;;;;98.07;58.65;;;;;;;5.37;54.56;94119.94;4982971;28;20141;-81
2020/12/02 14:45:21;;;;;;;87.88;54.55;;;;;;;5.35;54.61;94124.59;4977962;28;20022;-81
2020/12/02 14:47:47;;;;;;;109.65;64.50;;;;;;;5.27;54.92;94117.22;4991672;28;20045;-81
2020/12/02 14:50:12;;;;;;;123.68;77.22;;;;;;;5.30;54.80;94121.94;4985016;28;20030;-81
2020/12/02 14:52:38;;;;;;;122.55;73.70;;;;;;;5.21;54.72;94122.41;4983323;28;20073;-81
2020/12/02 14:55:04;;;;;;;92.15;56.72;;;;;;;5.11;54.93;94116.25;4996483;28;20394;-80
2020/12/02 14:58:00;;;;;;;102.10;58.53;;;;;;;5.09;55.37;94128.78;4994138;28;20120;-81
2020/12/02 15:00:26;;;;;;;81.95;49.72;;;;;;;5.01;55.41;94124.00;5008529;28;20517;-81
2020/12/02 15:02:52;;;;;;;76.50;48.10;;;;;;;4.92;55.58;94118.41;4973851;28;20881;-81
2020/12/02 15:05:28;;;;;;;81.72;48.10;;;;;;;4.94;55.63;94131.25;4973566;28;20081;-81
2020/12/02 15:08:37;;;;;;;78.55;47.22;;;;;;;4.81;55.87;94137.66;4985408;28;20042;-81
2020/12/02 15:11:06;;;;;;;79.50;45.45;;;;;;;4.70;56.15;94131.50;4980987;28;20138;-81
2020/12/02 15:13:34;;;;;;;61.03;37.17;;;;;;;4.67;56.03;94132.00;4998092;28;20053;-81
2020/12/02 15:16:00;;;;;;;75.63;44.13;;;;;;;4.64;56.17;94124.63;4994987;28;20028;-82
2020/12/02 15:18:25;;;;;;;93.10;53.67;;;;;;;4.61;56.08;94132.19;4998351;28;20030;-81
2020/12/02 15:20:59;;;;;;;92.10;51.88;;;;;;;4.64;56.17;94135.09;4992690;28;20030;-81
2020/12/02 15:23:35;;;;;;;93.70;52.60;;;;;;;4.60;56.23;94130.59;4994266;28;20037;-81
2020/12/02 15:26:01;;;;;;;86.47;47.35;;;;;;;4.52;56.25;94129.19;4994901;28;20046;-81
2020/12/02 15:28:30;;;;;;;74.25;41.08;;;;;;;4.51;56.47;94130.22;4995892;28;20042;-81
2020/12/02 15:31:03;;;;;;;74.28;40.10;;;;;;;4.37;56.43;94115.91;4994882;28;20585;-82
2020/12/02 15:33:35;;;;;;;83.93;47.35;;;;;;;4.46;56.35;94134.59;4994120;28;20048;-81
2020/12/02 15:36:00;;;;;;;88.25;47.95;;;;;;;4.49;56.38;94134.94;4996885;28;20062;-81
2020/12/02 15:39:04;;;;;;;92.47;48.58;;;;;;;4.46;56.55;94145.88;4980008;28;20129;-82
2020/12/02 15:41:47;;;;;;;58.10;36.17;;;;;;;4.42;56.84;94146.59;4979677;28;20050;-82
2020/12/02 15:44:39;;;;;;;58.30;32.45;;;;;;;4.40;57.10;94151.28;4985989;28;20493;-82
2020/12/02 15:47:26;;;;;;;72.32;39.10;;;;;;;4.35;56.97;94133.66;4993014;28;20082;-82
2020/12/02 15:50:00;;;;;;;84.75;43.33;;;;;;;4.31;57.02;94143.84;4986348;28;20403;-82
2020/12/02 15:52:54;;;;;;;136.93;66.22;;;;;;;4.32;56.90;94147.25;4979503;28;20075;-82
2020/12/02 15:55:40;;;;;;;106.93;56.85;;;;;;;4.23;56.86;94131.19;5008914;28;20050;-82
2020/12/02 15:58:43;;;;;;;70.00;39.95;;;;;;;4.35;56.68;94149.38;4978995;28;20049;-82
2020/12/02 16:01:20;;;;;;;58.88;37.30;;;;;;;4.27;56.74;94149.78;4980955;28;20073;-82